Latest Coastal Weather Observations for Proserpine

IDQ60701

Issued at 4:12 pm EST Tuesday 26 May 2020 (issued every 10 minutes, with the page automatically refreshed every 10 minutes)

About coastal observations | Map of coastal stations | Coastal observations for QLD | Marine services | Other Formats
Station Details ID: 033247 Name: PROSERPINE AIRPORT Lat: -20.49 Lon: 148.56 Height: 19.7 m
Data from the previous 72 hours. | See also: Recent months at Proserpine
Date/Time
EST
Wind Sea
Height
m
Swell Vis
km
Cloud Weather Temp
°C
Press
hPa
Rain since
9am
mm
Dir  Spd
kts
Gust
kts
Height
m
Period
s
Dir
26/04:00pm E 7 10 - - - - 10 Clear - 21.1 1017.5 0.0
26/03:30pm E 7 9 - - - - 10 - - 21.9 1017.7 0.0
26/03:00pm E 8 13 - - - - 10 - - 21.7 1017.6 0.0
26/02:30pm ENE 8 11 - - - - 10 - - 22.5 1017.8 0.0
26/02:00pm E 9 12 - - - - 10 - - 21.8 1018.0 0.0
26/01:30pm E 9 13 - - - - 10 - - 22.1 1018.2 0.0
26/01:00pm ESE 9 15 - - - - 10 - - 22.5 1018.5 0.0
26/12:30pm E 9 13 - - - - 10 - - 22.3 1019.0 0.0
26/12:00pm E 9 13 - - - - 10 - - 22.3 1019.4 0.0
26/11:30am ESE 7 10 - - - - 10 - - 21.5 1019.8 0.0
26/11:00am ENE 9 13 - - - - 10 - - 21.6 1020.0 0.0
26/10:30am NE 4 9 - - - - 10 - - 21.1 1020.1 0.0
26/10:00am NNE 1 4 - - - - 10 - - 20.2 1020.4 0.0
26/09:30am WSW 1 4 - - - - 10 - - 17.5 1020.2 0.0
26/09:00am SW 1 3 - - - - 10 - - 15.2 1020.4 0.0
26/08:30am WSW 1 4 - - - - 10 - - 13.0 1020.1 0.0
26/08:00am WNW 3 4 - - - - 10 - - 10.9 1019.9 0.0
26/07:30am WNW 2 4 - - - - 10 - - 9.3 1019.7 0.0
26/07:00am CALM 0 0 - - - - 10 - - 7.2 1019.7 0.0
26/06:30am CALM 0 3 - - - - 10 - - 6.8 1019.4 0.0
26/06:00am WSW 1 5 - - - - 10 - - 7.1 1019.1 0.0
26/05:30am N 4 5 - - - - 10 - - 6.9 1018.7 0.0
26/05:00am NW 3 4 - - - - 10 - - 7.2 1018.5 0.0
26/04:30am WSW 1 3 - - - - 10 - - 7.7 1018.4 0.0
26/04:00am SSW 4 7 - - - - 10 - - 7.6 1018.3 0.0
26/03:30am W 3 4 - - - - 10 - - 7.4 1018.2 0.0
26/03:00am NNE 2 6 - - - - 10 - - 7.8 1018.1 0.0
26/02:30am CALM 0 2 - - - - 10 - - 8.3 1018.4 0.0
26/02:00am CALM 0 0 - - - - 10 - - 8.4 1018.6 0.0
26/01:30am CALM 0 0 - - - - 10 - - 8.5 1018.8 0.0
26/01:00am CALM 0 1 - - - - 10 - - 8.8 1019.1 0.0
26/12:30am WNW 2 3 - - - - 10 - - 9.0 1018.9 0.0
26/12:00am SW 3 5 - - - - 10 - - 9.8 1018.9 0.0
 
Date/Time
EST
Wind Sea
Height
m
Swell Vis
km
Cloud Weather Temp
°C
Press
hPa
Rain since
9am
mm
Dir  Spd
kts
Gust
kts
Height
m
Period
s
Dir
25/11:30pm CALM 0 0 - - - - 10 - - 9.4 1019.3 0.0
25/11:00pm SSW 1 3 - - - - 10 - - 9.7 1019.4 0.0
25/10:30pm W 1 4 - - - - 10 - - 10.2 1019.5 0.0
25/10:00pm SW 1 3 - - - - 10 - - 10.4 1019.6 0.0
25/09:30pm ESE 3 4 - - - - 10 - - 10.6 1019.6 0.0
25/09:00pm WSW 1 3 - - - - 10 - - 11.9 1019.1 0.0
25/08:30pm SW 3 5 - - - - 10 - - 11.8 1019.0 0.0
25/08:00pm WNW 4 5 - - - - 10 - - 11.8 1018.5 0.0
25/07:30pm CALM 0 0 - - - - 10 - - 12.7 1018.1 0.0
25/07:00pm CALM 0 0 - - - - 10 - - 13.6 1017.8 0.0
25/06:30pm CALM 0 0 - - - - 10 - - 14.7 1017.4 0.0
25/06:00pm NE 1 3 - - - - 10 - - 16.2 1016.8 0.0
25/05:30pm NE 4 5 - - - - 10 - - 17.9 1016.4 0.0
25/05:00pm ENE 7 11 - - - - 10 - - 19.7 1016.0 0.0
25/04:30pm ENE 7 10 - - - - 10 - - 20.3 1015.7 0.0
25/04:00pm E 7 11 - - - - 10 - - 21.6 1015.5 0.0
25/03:30pm NNW 4 7 - - - - 10 - - 23.4 1015.4 0.0
25/03:00pm NNE 7 10 - - - - 10 - - 22.6 1015.4 0.0
25/02:30pm N 6 9 - - - - 10 - - 22.5 1015.8 0.0
25/02:00pm NNE 3 7 - - - - 10 - - 21.8 1016.2 0.0
25/01:30pm NNE 6 10 - - - - 10 - - 21.7 1016.7 0.0
25/01:00pm ENE 7 10 - - - - 10 - - 21.9 1017.1 0.0
25/12:30pm NE 8 11 - - - - 10 - - 20.9 1017.5 0.0
25/12:00pm NE 8 13 - - - - 10 - - 21.1 1017.8 0.0
25/11:30am NE 5 7 - - - - 10 - - 20.2 1018.2 0.0
25/11:00am ENE 5 8 - - - - 10 - - 19.5 1018.5 0.0
25/10:30am ENE 6 8 - - - - 10 - - 19.0 1018.8 0.0
25/10:00am E 5 9 - - - - 10 - - 18.6 1018.9 0.0
25/09:30am ESE 2 4 - - - - 10 - - 17.4 1018.9 0.0
25/09:00am SW 1 3 - - - - 10 - - 15.4 1018.8 0.0
25/08:30am E 1 4 - - - - 10 - - 14.3 1018.6 0.0
25/08:00am SSE 1 5 - - - - 10 - - 11.7 1018.5 0.0
25/07:30am W 3 5 - - - - 10 - - 9.0 1018.1 0.0
25/07:00am WNW 3 3 - - - - 10 - - 7.0 1017.8 0.0
25/06:30am W 4 5 - - - - 10 - - 6.3 1017.5 0.0
25/06:00am WNW 3 4 - - - - 10 - - 6.5 1017.2 0.0
25/05:30am NW 2 5 - - - - 10 - - 6.7 1016.7 0.0
25/05:00am W 3 5 - - - - 10 - - 7.3 1016.6 0.0
25/04:30am NNW 4 5 - - - - 10 - - 6.8 1016.5 0.0
25/04:00am NW 4 5 - - - - 10 - - 7.3 1016.5 0.0
25/03:30am WNW 5 6 - - - - 10 - - 7.2 1016.4 0.0
25/03:00am WNW 5 5 - - - - 10 - - 7.4 1016.6 0.0
25/02:30am W 4 6 - - - - 10 - - 7.6 1016.5 0.0
25/02:00am NNW 3 4 - - - - 10 - - 7.2 1016.7 0.0
25/01:30am NW 3 5 - - - - 10 - - 7.8 1016.9 0.0
25/01:00am CALM 0 0 - - - - 10 - - 8.4 1016.9 0.0
25/12:30am NNE 3 26 - - - - 10 - - 8.5 1016.9 0.0
25/12:00am WNW 1 3 - - - - 10 - - 8.8 1017.1 0.0
 
Date/Time
EST
Wind Sea
Height
m
Swell Vis
km
Cloud Weather Temp
°C
Press
hPa
Rain since
9am
mm
Dir  Spd
kts
Gust
kts
Height
m
Period
s
Dir
24/11:30pm CALM 0 0 - - - - 10 - - 9.2 1017.1 0.0
24/11:00pm NNE 1 3 - - - - 10 - - 9.8 1017.5 0.0
24/10:30pm SW 6 7 - - - - 10 - - 12.6 1017.5 0.0
24/10:00pm SW 7 8 - - - - 10 - - 13.3 1017.4 0.0
24/09:30pm SW 8 11 - - - - 10 - - 14.4 1017.5 0.0
24/09:00pm WSW 9 11 - - - - 10 - - 15.1 1017.4 0.0
24/08:30pm WSW 8 10 - - - - 10 - - 14.2 1017.0 0.0
24/08:00pm WSW 9 10 - - - - 10 - - 14.6 1016.8 0.0
24/07:30pm WSW 8 9 - - - - 10 - - 14.8 1016.4 0.0
24/07:00pm WSW 9 10 - - - - 10 - - 16.1 1015.9 0.0
24/06:30pm WSW 9 10 - - - - 10 - - 15.6 1015.5 0.0
24/06:00pm WSW 8 10 - - - - 10 - - 16.0 1014.9 0.0
24/05:30pm WSW 7 9 - - - - 10 - - 17.2 1014.7 0.0
24/05:00pm WSW 8 11 - - - - 10 - - 19.3 1014.0 0.0
24/04:30pm WSW 9 12 - - - - 10 - - 20.5 1013.4 0.0
24/04:00pm WSW 8 12 - - - - 10 - - 21.1 1013.2 0.0
24/03:30pm WSW 9 13 - - - - 10 - - 21.9 1013.3 0.0
24/03:00pm WSW 8 12 - - - - 10 - - 21.7 1013.3 0.0
24/02:30pm WSW 9 12 - - - - 10 - - 21.8 1013.5 0.0
24/02:00pm SW 9 13 - - - - 10 - - 21.4 1013.7 0.0
24/01:30pm WSW 9 13 - - - - 10 - - 21.3 1013.9 0.0
24/01:00pm WSW 7 11 - - - - 10 - - 21.4 1014.4 0.0
24/12:30pm SW 10 14 - - - - 10 - - 20.3 1015.0 0.0
24/12:00pm SSW 12 17 - - - - 10 - - 20.2 1015.5 0.0
24/11:30am SW 7 9 - - - - 10 - - 19.5 1016.2 0.0
24/11:00am WSW 6 9 - - - - 10 - - 18.8 1016.8 0.0
24/10:30am SW 6 9 - - - - 10 - - 18.1 1017.2 0.0
24/10:00am SW 5 8 - - - - 10 - - 17.4 1017.2 0.0
24/09:30am SW 6 9 - - - - 10 - - 16.9 1017.3 0.0
24/09:00am SW 7 10 - - - - 10 - - 16.0 1017.1 11.0
24/08:30am SW 6 8 - - - - 10 - - 15.0 1017.0 11.0
24/08:00am SW 4 5 - - - - 10 - - 13.4 1016.9 11.0
24/07:30am SW 3 5 - - - - 10 - - 12.0 1016.7 11.0
24/07:00am SW 3 5 - - - - 10 - - 9.5 1016.1 11.0
24/06:30am SSW 4 6 - - - - 10 - - 9.8 1015.3 11.0
24/06:00am SSW 7 10 - - - - 10 - - 10.9 1015.1 11.0
24/05:30am SSW 9 12 - - - - 10 - - 11.2 1014.4 11.0
24/05:00am SW 12 16 - - - - 10 - - 11.9 1014.2 11.0
24/04:30am SSW 9 12 - - - - 10 - - 11.6 1014.1 11.0
24/04:00am SSW 7 11 - - - - 10 - - 11.1 1014.3 11.0
24/03:30am SSW 7 10 - - - - 10 - - 11.3 1014.1 11.0
24/03:00am SW 6 9 - - - - 10 Mostly cloudy - 10.4 1014.1 11.0
24/02:30am NW 2 4 - - - - 10 - - 10.5 1014.4 11.0
24/02:00am E 2 6 - - - - 10 - - 11.1 1015.2 11.0
24/01:30am WSW 3 5 - - - - 10 - - 10.9 1014.4 11.0
24/01:00am SW 6 10 - - - - 10 - - 11.4 1015.4 11.0
24/12:30am SSW 6 8 - - - - 10 - - 11.7 1014.6 11.0
24/12:00am S 6 8 - - - - 10 Cloudy - 12.2 1014.7 10.8
 
Date/Time
EST
Wind Sea
Height
m
Swell Vis
km
Cloud Weather Temp
°C
Press
hPa
Rain since
9am
mm
Dir  Spd
kts
Gust
kts
Height
m
Period
s
Dir
23/11:56pm S 7 9 - - - - 10 - - 12.2 1014.4 10.8
23/11:30pm WSW 7 9 - - - - 10 - - 12.4 1016.4 10.8
23/11:00pm SSW 7 9 - - - - 10 - - 12.5 1015.4 10.8
23/10:30pm SW 8 11 - - - - 10 - - 12.6 1016.6 10.8
23/10:00pm SW 5 8 - - - - 10 - - 12.8 1015.8 10.8
23/09:30pm SW 9 12 - - - - 10 - - 12.8 1016.3 10.8
23/09:15pm SSW 5 9 - - - - 10 - - 12.9 1014.7 10.8
23/09:00pm SW 10 15 - - - - 10 Cloudy - 12.9 1016.7 10.8
23/08:30pm SSW 8 13 - - - - 10 Partly cloudy - 12.9 1015.2 10.8
23/08:00pm SSW 4 8 - - - - 10 - - 12.9 1015.0 10.8
23/07:30pm SW 7 11 - - - - 10 Partly cloudy - 13.0 1015.2 10.8
23/07:00pm WSW 6 9 - - - - 10 Partly cloudy - 13.2 1015.3 10.8
23/06:45pm WSW 8 13 - - - - 10 Partly cloudy - 13.2 1015.2 10.8
23/06:30pm SSW 6 7 - - - - 10 Cloudy - 13.2 1014.7 10.8
23/06:04pm W 6 8 - - - - 10 Partly cloudy - 13.2 1014.0 10.8
23/06:00pm WSW 6 8 - - - - 10 Cloudy Showers 13.3 1014.6 10.8
23/05:30pm W 4 6 - - - - 10 Partly cloudy - 13.2 1013.3 10.8
23/05:00pm W 1 4 - - - - 10 Partly cloudy - 13.2 1013.9 10.4
23/04:30pm SW 2 5 - - - - 10 Partly cloudy - 13.2 1014.1 10.0

Other formats

Comma delimited format used in spreadsheet applications
http://www.bom.gov.au/fwo/IDQ60701/IDQ60701.94365.axf

JavaScript Object Notation format (JSON) in row-major order
http://www.bom.gov.au/fwo/IDQ60701/IDQ60701.94365.json

Data quality

Most of these data are generated automatically and are frequently updated. Quality checks on data are not normally performed. It is possible for incorrect values to appear. Refer to information at About Latest Weather Observations and please check the disclaimer before using these data.